Time;durP1;ratioP1;P1;durP2;ratioP2;P2;SDS_P1;SDS_P2;PMS_P1;PMS_P2;Temp;Humidity;BMP_temperature;BMP_pressure;BME280_temperature;BME280_humidity;BME280_pressure;Samples;Min_cycle;Max_cycle;Signal;HPM_P1;HPM_P2
2021/09/09 00:01:51;;;;;;;20.83;16.65;;;19.00;99.90;;;;;;5101168;28;20064;-80
2021/09/09 00:04:18;;;;;;;19.58;16.38;;;19.00;99.90;;;;;;5107136;28;20052;-79
2021/09/09 00:06:45;;;;;;;19.65;16.52;;;19.00;99.90;;;;;;5106315;28;20059;-79
2021/09/09 00:09:14;;;;;;;20.63;16.33;;;19.00;99.90;;;;;;5106344;28;20060;-79
2021/09/09 00:11:41;;;;;;;19.23;17.13;;;19.00;99.90;;;;;;5096181;28;20087;-79
2021/09/09 00:14:08;;;;;;;21.52;16.30;;;18.90;99.90;;;;;;5092633;28;20098;-78
2021/09/09 00:16:35;;;;;;;17.88;16.00;;;18.90;99.90;;;;;;5088421;28;20120;-78
2021/09/09 00:19:02;;;;;;;18.52;16.52;;;18.90;99.90;;;;;;5080102;28;20479;-79
2021/09/09 00:21:29;;;;;;;19.83;16.52;;;18.90;99.90;;;;;;5080203;28;20451;-78
2021/09/09 00:23:56;;;;;;;21.17;16.95;;;18.80;99.90;;;;;;5082667;28;20084;-79
2021/09/09 00:26:24;;;;;;;19.75;16.80;;;18.80;99.90;;;;;;5082836;28;20127;-79
2021/09/09 00:28:51;;;;;;;19.90;17.05;;;18.80;99.90;;;;;;5084047;28;20053;-82
2021/09/09 00:31:18;;;;;;;19.15;16.23;;;18.70;99.90;;;;;;5080963;28;20063;-79
2021/09/09 00:33:45;;;;;;;19.48;16.65;;;18.70;99.90;;;;;;5078977;28;20135;-79
2021/09/09 00:36:13;;;;;;;19.73;17.20;;;18.70;99.90;;;;;;5079437;28;20433;-80
2021/09/09 00:38:40;;;;;;;19.33;16.63;;;18.70;99.90;;;;;;5078218;28;20092;-79
2021/09/09 00:41:07;;;;;;;20.85;17.33;;;18.60;99.90;;;;;;5078047;28;20131;-78
2021/09/09 00:43:35;;;;;;;21.65;17.30;;;18.50;99.90;;;;;;5078208;28;20045;-78
2021/09/09 00:46:03;;;;;;;18.15;16.27;;;18.50;99.90;;;;;;5077850;28;20127;-78
2021/09/09 00:48:31;;;;;;;19.95;16.80;;;18.50;99.90;;;;;;5078354;28;20135;-79
2021/09/09 00:50:58;;;;;;;21.80;18.38;;;18.50;99.90;;;;;;5077853;28;20561;-79
2021/09/09 00:53:25;;;;;;;20.63;17.83;;;18.40;99.90;;;;;;5078081;28;20091;-79
2021/09/09 00:55:52;;;;;;;19.92;17.25;;;18.30;99.90;;;;;;5077920;28;20131;-79
2021/09/09 00:58:19;;;;;;;19.92;16.60;;;18.20;99.90;;;;;;5077316;28;20076;-79
2021/09/09 01:00:48;;;;;;;19.85;16.70;;;18.10;99.90;;;;;;5078563;28;20104;-78
2021/09/09 01:03:15;;;;;;;19.30;16.50;;;18.10;99.90;;;;;;5079889;28;20527;-79
2021/09/09 01:05:41;;;;;;;19.75;17.20;;;18.00;99.90;;;;;;5079294;28;20087;-78
2021/09/09 01:08:08;;;;;;;19.80;17.35;;;18.00;99.90;;;;;;5081827;28;20136;-77
2021/09/09 01:10:36;;;;;;;24.90;16.77;;;17.90;99.90;;;;;;5081539;28;20154;-78
2021/09/09 01:13:07;;;;;;;22.17;17.58;;;17.90;99.90;;;;;;5078798;28;20104;-80
2021/09/09 01:15:38;;;;;;;20.00;17.27;;;17.90;99.90;;;;;;5082512;28;20117;-80
2021/09/09 01:18:09;;;;;;;22.25;17.77;;;17.90;99.90;;;;;;5085607;28;20090;-79
2021/09/09 01:20:36;;;;;;;20.95;17.00;;;17.90;99.90;;;;;;5084034;28;20049;-81
2021/09/09 01:23:03;;;;;;;26.23;17.13;;;17.80;99.90;;;;;;5084140;28;20099;-79
2021/09/09 01:25:32;;;;;;;21.60;17.50;;;17.80;99.90;;;;;;5082346;28;20086;-82
2021/09/09 01:27:59;;;;;;;19.77;16.70;;;17.80;99.90;;;;;;5083040;28;20052;-78
2021/09/09 01:30:26;;;;;;;19.33;16.92;;;17.90;99.90;;;;;;5085151;28;20087;-81
2021/09/09 01:32:52;;;;;;;22.75;17.35;;;17.90;99.90;;;;;;5082915;28;20426;-80
2021/09/09 01:35:19;;;;;;;19.77;17.27;;;17.90;99.90;;;;;;5082186;28;20131;-79
2021/09/09 01:37:46;;;;;;;19.02;17.02;;;17.90;99.90;;;;;;5082857;28;20442;-80
2021/09/09 01:40:14;;;;;;;19.75;16.35;;;17.90;99.90;;;;;;5082458;28;20064;-80
2021/09/09 01:42:42;;;;;;;21.25;16.52;;;17.90;99.90;;;;;;5084262;28;20052;-80
2021/09/09 01:45:10;;;;;;;19.20;17.20;;;17.90;99.90;;;;;;5083661;28;20087;-80
2021/09/09 01:47:37;;;;;;;19.27;16.00;;;17.90;99.90;;;;;;5083040;28;20536;-80
2021/09/09 01:50:04;;;;;;;19.50;16.30;;;17.90;99.90;;;;;;5082471;28;20133;-81
2021/09/09 01:52:31;;;;;;;18.85;16.65;;;17.80;99.90;;;;;;5083826;28;20056;-79
2021/09/09 01:54:58;;;;;;;18.55;16.50;;;17.80;99.90;;;;;;5082741;28;20191;-79
2021/09/09 01:57:25;;;;;;;19.75;16.05;;;17.80;99.90;;;;;;5080143;28;20450;-79
2021/09/09 01:59:56;;;;;;;22.70;16.40;;;17.80;99.90;;;;;;5079186;28;20108;-80
2021/09/09 02:02:23;;;;;;;18.00;15.25;;;17.80;99.90;;;;;;5079669;28;20395;-79
2021/09/09 02:04:50;;;;;;;18.90;16.90;;;17.80;99.90;;;;;;5079337;28;20127;-77
2021/09/09 02:07:17;;;;;;;18.65;15.73;;;17.70;99.90;;;;;;5079479;28;20102;-78
2021/09/09 02:09:46;;;;;;;18.77;16.15;;;17.80;99.90;;;;;;5078586;28;20051;-79
2021/09/09 02:12:13;;;;;;;19.00;16.40;;;17.70;99.90;;;;;;5080570;28;20048;-79
2021/09/09 02:14:40;;;;;;;18.23;16.25;;;17.80;99.90;;;;;;5081060;28;20135;-79
2021/09/09 02:17:09;;;;;;;22.05;16.45;;;17.70;99.90;;;;;;5080705;28;20123;-80
2021/09/09 02:19:36;;;;;;;20.92;16.23;;;17.70;99.90;;;;;;5078340;28;20127;-78
2021/09/09 02:22:03;;;;;;;17.58;15.77;;;17.60;99.90;;;;;;5076744;28;20131;-79
2021/09/09 02:24:30;;;;;;;17.13;14.82;;;17.60;99.90;;;;;;5075926;28;20131;-77
2021/09/09 02:26:57;;;;;;;19.08;15.63;;;17.60;99.90;;;;;;5078324;28;20112;-78
2021/09/09 02:29:24;;;;;;;17.75;15.35;;;17.60;99.90;;;;;;5079918;28;20474;-78
2021/09/09 02:31:51;;;;;;;23.10;15.90;;;17.60;99.90;;;;;;5077269;28;20554;-79
2021/09/09 02:34:19;;;;;;;20.55;16.17;;;17.60;99.90;;;;;;5077959;28;20052;-78
2021/09/09 02:36:46;;;;;;;19.95;16.20;;;17.50;99.90;;;;;;5077454;28;20100;-78
2021/09/09 02:39:13;;;;;;;19.67;15.88;;;17.50;99.90;;;;;;5076349;28;20048;-79
2021/09/09 02:41:39;;;;;;;16.48;14.68;;;17.50;99.90;;;;;;5077230;28;20084;-78
2021/09/09 02:44:06;;;;;;;18.15;15.63;;;17.50;99.90;;;;;;5076913;28;20128;-76
2021/09/09 02:46:33;;;;;;;18.50;15.18;;;17.50;99.90;;;;;;5078130;28;20033;-78
2021/09/09 02:49:00;;;;;;;18.80;15.57;;;17.50;99.90;;;;;;5076218;28;20076;-76
2021/09/09 02:51:28;;;;;;;17.30;15.50;;;17.50;99.90;;;;;;5075321;28;20088;-78
2021/09/09 02:53:55;;;;;;;17.05;15.25;;;17.40;99.90;;;;;;5074600;28;20080;-78
2021/09/09 02:56:22;;;;;;;17.90;16.00;;;17.40;99.90;;;;;;5075131;28;20048;-78
2021/09/09 02:58:49;;;;;;;22.85;16.73;;;17.40;99.90;;;;;;5074895;28;20082;-78
2021/09/09 03:01:16;;;;;;;17.13;15.27;;;17.30;99.90;;;;;;5074513;28;20040;-79
2021/09/09 03:03:43;;;;;;;18.88;15.27;;;17.30;99.90;;;;;;5074822;28;20534;-76
2021/09/09 03:06:10;;;;;;;18.50;16.20;;;17.30;99.90;;;;;;5074602;28;20754;-79
2021/09/09 03:08:38;;;;;;;18.42;15.90;;;17.30;99.90;;;;;;5070309;28;20048;-79
2021/09/09 03:11:05;;;;;;;21.13;15.88;;;17.30;99.90;;;;;;5074273;28;20457;-78
2021/09/09 03:13:32;;;;;;;20.90;15.60;;;17.30;99.90;;;;;;5074481;28;20522;-78
2021/09/09 03:15:59;;;;;;;18.63;16.05;;;17.30;99.90;;;;;;5074694;28;20140;-78
2021/09/09 03:18:25;;;;;;;22.70;16.38;;;17.30;99.90;;;;;;5074449;28;20489;-78
2021/09/09 03:20:53;;;;;;;23.00;17.02;;;17.30;99.90;;;;;;5074914;28;20597;-78
2021/09/09 03:23:20;;;;;;;18.20;15.98;;;17.30;99.90;;;;;;5074109;28;20051;-79
2021/09/09 03:25:48;;;;;;;19.40;16.45;;;17.20;99.90;;;;;;5073924;28;20475;-78
2021/09/09 03:28:15;;;;;;;18.77;16.73;;;17.20;99.90;;;;;;5073453;28;20080;-78
2021/09/09 03:30:42;;;;;;;20.75;16.67;;;17.20;99.90;;;;;;5074239;28;20135;-77
2021/09/09 03:33:09;;;;;;;20.70;17.00;;;17.20;99.90;;;;;;5072691;28;20080;-78
2021/09/09 03:35:35;;;;;;;19.83;16.38;;;17.20;99.90;;;;;;5069501;28;20049;-78
2021/09/09 03:38:02;;;;;;;17.88;15.98;;;17.20;99.90;;;;;;5073932;28;20132;-77
2021/09/09 03:40:30;;;;;;;19.85;16.00;;;17.10;99.90;;;;;;5074666;28;20048;-80
2021/09/09 03:42:58;;;;;;;19.27;17.17;;;17.10;99.90;;;;;;5075022;28;20049;-79
2021/09/09 03:45:25;;;;;;;21.00;16.45;;;17.10;99.90;;;;;;5075309;28;20053;-79
2021/09/09 03:47:52;;;;;;;20.58;17.35;;;17.10;99.90;;;;;;5074517;28;20075;-78
2021/09/09 03:50:19;;;;;;;22.80;17.35;;;17.10;99.90;;;;;;5074328;28;20281;-78
2021/09/09 03:52:46;;;;;;;22.23;17.85;;;17.10;99.90;;;;;;5082064;28;20056;-80
2021/09/09 03:55:13;;;;;;;19.85;16.80;;;17.10;99.90;;;;;;5078268;28;20076;-78
2021/09/09 03:57:40;;;;;;;19.77;17.40;;;17.10;99.90;;;;;;5077610;28;20080;-79
2021/09/09 04:00:10;;;;;;;23.80;18.50;;;17.00;99.90;;;;;;5076770;28;20091;-78
2021/09/09 04:02:36;;;;;;;20.23;16.92;;;17.00;99.90;;;;;;5077051;28;20083;-77
2021/09/09 04:05:04;;;;;;;28.17;18.77;;;16.90;99.90;;;;;;5077012;28;20131;-78
2021/09/09 04:07:31;;;;;;;21.55;18.15;;;16.90;99.90;;;;;;5077044;28;20137;-78
2021/09/09 04:09:58;;;;;;;21.55;18.08;;;16.90;99.90;;;;;;5077864;28;20098;-78
2021/09/09 04:12:25;;;;;;;22.77;19.05;;;16.80;99.90;;;;;;5077263;28;20053;-78
2021/09/09 04:14:52;;;;;;;26.13;19.17;;;16.70;99.90;;;;;;5076585;28;20061;-81
2021/09/09 04:17:20;;;;;;;22.35;17.92;;;16.70;99.90;;;;;;5083298;28;20072;-80
2021/09/09 04:19:47;;;;;;;25.48;18.75;;;16.60;99.90;;;;;;5082278;28;20056;-79
2021/09/09 04:22:14;;;;;;;21.63;18.98;;;16.60;99.90;;;;;;5082957;28;20072;-79
2021/09/09 04:24:41;;;;;;;20.73;17.55;;;16.70;99.90;;;;;;5083782;28;20091;-79
2021/09/09 04:27:08;;;;;;;23.35;18.52;;;16.60;99.90;;;;;;5082913;28;20045;-80
2021/09/09 04:29:38;;;;;;;22.80;19.42;;;16.50;99.90;;;;;;5084010;28;20048;-79
2021/09/09 04:32:08;;;;;;;25.25;18.48;;;16.50;99.90;;;;;;5086551;28;20069;-80
2021/09/09 04:34:36;;;;;;;22.60;17.67;;;16.50;99.90;;;;;;5080672;28;20122;-79
2021/09/09 04:37:03;;;;;;;22.48;18.27;;;16.40;99.90;;;;;;5080616;28;20167;-79
2021/09/09 04:39:30;;;;;;;23.25;18.00;;;16.50;99.90;;;;;;5079831;28;20049;-80
2021/09/09 04:41:58;;;;;;;21.58;17.75;;;16.50;99.90;;;;;;5079964;28;20103;-80
2021/09/09 04:44:25;;;;;;;19.23;16.85;;;16.40;99.90;;;;;;5080599;28;20049;-80
2021/09/09 04:46:52;;;;;;;22.00;17.67;;;16.40;99.90;;;;;;5080393;28;20133;-80
2021/09/09 04:49:22;;;;;;;22.02;17.48;;;16.40;99.90;;;;;;5093242;23;20067;-77
2021/09/09 04:51:50;;;;;;;26.20;18.77;;;16.40;99.90;;;;;;5060416;28;20507;-78
2021/09/09 04:54:17;;;;;;;21.00;17.20;;;16.40;99.90;;;;;;5062160;28;20079;-79
2021/09/09 04:56:44;;;;;;;21.73;17.02;;;16.50;99.90;;;;;;5061500;28;20450;-79
2021/09/09 04:59:11;;;;;;;22.90;17.05;;;16.50;99.90;;;;;;5060998;28;20593;-79
2021/09/09 05:01:38;;;;;;;20.92;16.67;;;16.50;99.90;;;;;;5059057;28;20060;-80
2021/09/09 05:04:05;;;;;;;24.92;17.20;;;16.50;99.90;;;;;;5061370;28;20056;-79
2021/09/09 05:06:32;;;;;;;23.75;17.63;;;16.50;99.90;;;;;;5062170;28;20072;-80
2021/09/09 05:09:00;;;;;;;19.58;17.48;;;16.60;99.90;;;;;;5062382;28;20113;-80
2021/09/09 05:11:27;;;;;;;20.13;17.02;;;16.60;99.90;;;;;;5062460;28;20132;-80
2021/09/09 05:13:54;;;;;;;25.70;17.73;;;16.70;99.90;;;;;;5062493;28;20049;-80
2021/09/09 05:16:20;;;;;;;22.38;17.27;;;16.70;99.90;;;;;;5062245;28;20059;-79
2021/09/09 05:18:47;;;;;;;22.55;17.77;;;16.70;99.90;;;;;;5061121;28;20111;-79
2021/09/09 05:21:14;;;;;;;26.92;17.42;;;16.70;99.90;;;;;;5060641;28;20560;-80
2021/09/09 05:23:41;;;;;;;21.65;17.42;;;16.70;99.90;;;;;;5061569;28;20135;-80
2021/09/09 05:26:09;;;;;;;19.70;17.40;;;16.70;99.90;;;;;;5061668;28;20096;-80
2021/09/09 05:28:36;;;;;;;20.08;17.08;;;16.60;99.90;;;;;;5063015;28;20107;-80
2021/09/09 05:31:03;;;;;;;23.55;17.27;;;16.60;99.90;;;;;;5061874;28;20546;-80
2021/09/09 05:33:30;;;;;;;21.17;16.13;;;16.70;99.90;;;;;;5062788;28;20133;-79
2021/09/09 05:35:57;;;;;;;21.40;17.23;;;16.70;99.90;;;;;;5061839;28;20109;-80
2021/09/09 05:38:24;;;;;;;20.00;16.92;;;16.70;99.90;;;;;;5062455;28;20064;-79
2021/09/09 05:40:51;;;;;;;19.75;16.30;;;16.80;99.90;;;;;;5060839;28;20541;-78
2021/09/09 05:43:19;;;;;;;22.80;16.63;;;16.90;99.90;;;;;;5061838;28;20077;-79
2021/09/09 05:45:47;;;;;;;21.25;17.00;;;16.90;99.90;;;;;;5062324;28;20468;-79
2021/09/09 05:48:13;;;;;;;22.13;17.05;;;17.00;99.90;;;;;;5062129;28;20045;-79
2021/09/09 05:50:40;;;;;;;21.08;16.05;;;17.10;99.90;;;;;;5060046;28;20055;-79
2021/09/09 05:53:07;;;;;;;21.48;17.52;;;17.20;99.90;;;;;;5060786;28;20072;-80
2021/09/09 05:55:34;;;;;;;30.40;16.88;;;17.20;99.90;;;;;;5062281;28;20084;-79
2021/09/09 05:58:01;;;;;;;25.55;16.58;;;17.30;99.90;;;;;;5060759;28;20106;-79
2021/09/09 06:00:31;;;;;;;23.52;16.58;;;17.40;99.90;;;;;;5062085;28;20084;-79
2021/09/09 06:03:01;;;;;;;29.50;17.30;;;17.40;99.90;;;;;;5061390;28;20136;-80
2021/09/09 06:05:28;;;;;;;21.17;16.85;;;17.50;99.90;;;;;;5063069;28;20403;-80
2021/09/09 06:07:55;;;;;;;28.27;18.23;;;17.60;99.90;;;;;;5060745;28;20048;-78
2021/09/09 06:10:22;;;;;;;23.02;17.25;;;17.80;99.90;;;;;;5060217;28;20108;-79
2021/09/09 06:12:49;;;;;;;21.98;16.40;;;17.80;99.90;;;;;;5059644;28;20049;-79
2021/09/09 06:15:16;;;;;;;25.83;17.95;;;17.90;99.90;;;;;;5058922;28;20076;-79
2021/09/09 06:17:44;;;;;;;24.17;17.85;;;18.00;99.90;;;;;;5061608;28;20041;-77
2021/09/09 06:20:14;;;;;;;20.13;16.50;;;17.90;99.90;;;;;;5060990;28;20473;-79
2021/09/09 06:22:42;;;;;;;22.35;16.02;;;18.10;99.90;;;;;;5063266;28;20071;-78
2021/09/09 06:25:10;;;;;;;19.85;15.73;;;18.60;99.90;;;;;;5069206;28;20064;-80
2021/09/09 06:27:37;;;;;;;18.35;15.07;;;19.30;99.90;;;;;;5063935;28;20101;-78
2021/09/09 06:30:05;;;;;;;20.98;15.45;;;19.90;99.90;;;;;;5066784;28;20478;-78
2021/09/09 06:32:32;;;;;;;17.30;14.43;;;20.50;99.90;;;;;;5065315;28;20517;-79
2021/09/09 06:35:00;;;;;;;21.25;14.23;;;21.30;99.90;;;;;;5065933;28;20056;-79
2021/09/09 06:37:27;;;;;;;24.92;14.63;;;21.90;99.90;;;;;;5066073;28;20104;-79
2021/09/09 06:39:54;;;;;;;18.58;14.25;;;22.50;99.90;;;;;;5066709;28;20067;-79
2021/09/09 06:42:22;;;;;;;17.88;14.50;;;23.10;99.90;;;;;;5068869;28;20045;-79
2021/09/09 06:44:49;;;;;;;19.17;15.40;;;23.40;99.90;;;;;;5067551;28;20091;-79
2021/09/09 06:47:16;;;;;;;22.63;14.43;;;23.70;99.90;;;;;;5067230;28;20069;-79
2021/09/09 06:49:43;;;;;;;19.85;14.88;;;24.00;99.90;;;;;;5067923;28;20033;-78
2021/09/09 06:52:11;;;;;;;17.88;15.25;;;24.30;99.90;;;;;;5068663;28;20048;-79
2021/09/09 06:54:38;;;;;;;15.93;14.23;;;24.50;99.90;;;;;;5065997;28;20053;-78
2021/09/09 06:57:05;;;;;;;17.35;15.00;;;24.40;99.90;;;;;;5069610;28;20056;-79
2021/09/09 06:59:32;;;;;;;22.30;15.18;;;24.40;99.90;;;;;;5069892;28;20052;-79
2021/09/09 07:01:59;;;;;;;20.52;14.10;;;24.10;99.90;;;;;;5070521;28;20499;-79
2021/09/09 07:04:26;;;;;;;17.48;14.05;;;24.00;99.90;;;;;;5067873;28;20045;-78
2021/09/09 07:06:52;;;;;;;22.13;14.10;;;24.20;99.90;;;;;;5061903;28;20498;-77
2021/09/09 07:09:21;;;;;;;15.52;13.82;;;24.50;99.90;;;;;;5055128;28;20417;-78
2021/09/09 07:11:47;;;;;;;17.60;13.02;;;24.50;99.90;;;;;;5054192;28;20411;-77
2021/09/09 07:14:14;;;;;;;17.15;13.35;;;24.40;99.90;;;;;;5063001;28;20144;-78
2021/09/09 07:16:41;;;;;;;17.85;13.32;;;24.20;99.90;;;;;;5061490;28;20140;-78
2021/09/09 07:19:08;;;;;;;14.95;13.27;;;24.20;99.90;;;;;;5065475;28;20041;-78
2021/09/09 07:21:35;;;;;;;16.10;12.77;;;24.20;99.90;;;;;;5067540;28;20049;-78
2021/09/09 07:24:02;;;;;;;18.67;13.15;;;24.30;99.90;;;;;;5067478;28;20548;-78
2021/09/09 07:26:30;;;;;;;16.27;12.55;;;24.60;99.90;;;;;;5067529;28;20084;-78
2021/09/09 07:28:57;;;;;;;15.70;12.30;;;24.80;99.90;;;;;;5072251;28;20048;-78
2021/09/09 07:31:23;;;;;;;15.02;13.45;;;24.90;99.90;;;;;;5061630;28;20463;-79
2021/09/09 07:33:50;;;;;;;16.30;13.20;;;24.70;99.90;;;;;;5073592;28;20083;-78
2021/09/09 07:36:17;;;;;;;18.23;13.75;;;24.40;99.90;;;;;;5060008;28;20136;-79
2021/09/09 07:38:44;;;;;;;15.82;13.00;;;24.20;99.90;;;;;;5078022;28;20065;-79
2021/09/09 07:41:11;;;;;;;15.40;12.55;;;24.20;99.90;;;;;;5078007;28;20084;-79
2021/09/09 07:43:40;;;;;;;15.93;12.65;;;24.40;99.90;;;;;;5076335;28;20060;-78
2021/09/09 07:46:06;;;;;;;17.10;13.05;;;24.60;99.90;;;;;;5076261;28;20048;-79
2021/09/09 07:48:33;;;;;;;16.52;12.65;;;25.00;99.90;;;;;;5072359;28;20041;-79
2021/09/09 07:51:00;;;;;;;15.15;12.88;;;25.10;99.90;;;;;;5069360;28;20049;-78
2021/09/09 07:53:27;;;;;;;15.75;12.48;;;25.00;99.90;;;;;;5066767;28;20109;-78
2021/09/09 07:55:54;;;;;;;14.55;12.98;;;25.20;99.90;;;;;;5071849;28;20076;-78
2021/09/09 07:58:21;;;;;;;14.93;13.18;;;25.10;99.90;;;;;;5069503;28;20075;-79
2021/09/09 08:00:49;;;;;;;16.48;12.63;;;25.10;99.90;;;;;;5065303;28;20110;-78
2021/09/09 08:03:16;;;;;;;18.75;12.75;;;25.20;99.90;;;;;;5067018;28;20115;-78
2021/09/09 08:05:43;;;;;;;19.42;13.18;;;25.50;99.90;;;;;;5067808;28;20136;-77
2021/09/09 08:08:10;;;;;;;15.07;12.02;;;25.90;99.90;;;;;;5060967;28;20104;-78
2021/09/09 08:10:36;;;;;;;15.45;12.65;;;26.10;99.90;;;;;;5061262;28;20116;-78
2021/09/09 08:13:03;;;;;;;16.98;12.77;;;26.40;99.90;;;;;;5061701;28;20128;-79
2021/09/09 08:15:30;;;;;;;15.75;12.40;;;26.30;99.90;;;;;;5072849;28;20076;-78
2021/09/09 08:17:59;;;;;;;16.00;12.98;;;26.20;99.90;;;;;;5072904;28;20045;-78
2021/09/09 08:20:25;;;;;;;16.95;12.70;;;26.40;99.90;;;;;;5072491;28;20072;-79
2021/09/09 08:22:52;;;;;;;16.25;12.93;;;26.40;99.90;;;;;;5072323;28;20083;-79
2021/09/09 08:25:19;;;;;;;19.15;12.95;;;26.20;99.90;;;;;;5071235;28;20076;-78
2021/09/09 08:27:46;;;;;;;14.85;12.65;;;26.40;99.90;;;;;;5066858;28;20087;-79
2021/09/09 08:30:14;;;;;;;16.75;13.60;;;26.20;99.90;;;;;;5067724;28;20049;-78
2021/09/09 08:32:41;;;;;;;19.63;13.30;;;25.90;99.90;;;;;;5067937;28;20053;-79
2021/09/09 08:35:11;;;;;;;18.83;13.27;;;26.00;99.90;;;;;;5069691;28;20076;-79
2021/09/09 08:37:38;;;;;;;18.23;13.15;;;26.00;99.90;;;;;;5066892;28;20048;-80
2021/09/09 08:40:09;;;;;;;20.33;13.48;;;26.40;99.90;;;;;;5067163;28;20080;-79
2021/09/09 08:42:38;;;;;;;17.67;14.20;;;26.70;99.90;;;;;;5068628;28;20053;-79
2021/09/09 08:45:06;;;;;;;15.52;13.45;;;26.80;99.90;;;;;;5070960;28;20080;-80
2021/09/09 08:47:37;;;;;;;19.93;15.03;;;26.80;99.90;;;;;;5070884;28;20049;-79
2021/09/09 08:50:06;;;;;;;20.77;15.85;;;26.90;99.90;;;;;;5068998;28;20045;-79
2021/09/09 08:52:36;;;;;;;22.08;14.73;;;27.10;99.90;;;;;;5064262;28;20077;-79
2021/09/09 08:55:03;;;;;;;21.52;16.65;;;27.20;99.90;;;;;;5068545;28;20049;-80
2021/09/09 08:57:32;;;;;;;21.25;14.90;;;27.50;99.90;;;;;;5069520;28;20059;-79
2021/09/09 08:59:59;;;;;;;17.40;14.57;;;27.50;99.90;;;;;;5068625;28;20494;-79
2021/09/09 09:02:26;;;;;;;18.70;14.65;;;27.70;99.90;;;;;;5068929;28;20073;-79
2021/09/09 09:05:03;;;;;;;23.60;13.90;;;27.80;99.90;;;;;;5068683;28;20056;-79
2021/09/09 09:07:32;;;;;;;19.67;13.90;;;27.80;99.90;;;;;;5068817;28;20087;-79
2021/09/09 09:10:03;;;;;;;18.77;13.73;;;27.70;99.90;;;;;;5068115;28;20045;-80
2021/09/09 09:12:41;;;;;;;16.27;13.60;;;27.50;99.90;;;;;;5068477;28;20053;-80
2021/09/09 09:15:14;;;;;;;19.65;14.35;;;27.40;99.90;;;;;;5069283;28;20072;-79
2021/09/09 09:17:58;;;;;;;16.63;13.57;;;27.30;99.90;;;;;;5067248;28;20088;-79
2021/09/09 09:20:35;;;;;;;18.65;14.35;;;27.40;99.90;;;;;;5079199;28;20076;-78
2021/09/09 09:23:13;;;;;;;16.55;13.27;;;27.50;99.90;;;;;;5080413;28;20186;-79
2021/09/09 09:25:51;;;;;;;16.70;14.90;;;27.60;99.90;;;;;;5081407;28;20073;-78
2021/09/09 09:28:41;;;;;;;18.95;13.77;;;27.40;99.90;;;;;;5071755;28;20048;-78
2021/09/09 09:31:10;;;;;;;20.42;14.30;;;27.30;99.90;;;;;;5072053;28;20083;-78
2021/09/09 09:33:39;;;;;;;22.92;16.60;;;27.40;99.90;;;;;;5078773;28;20108;-79
2021/09/09 09:36:14;;;;;;;22.95;15.95;;;27.30;99.90;;;;;;5080301;28;20160;-79
2021/09/09 09:38:41;;;;;;;17.85;14.98;;;27.30;99.90;;;;;;5080284;28;20474;-79
2021/09/09 09:41:10;;;;;;;20.77;14.77;;;27.00;99.90;;;;;;5080073;28;20072;-79
2021/09/09 09:43:36;;;;;;;17.98;14.20;;;27.00;99.90;;;;;;5080101;28;20135;-78
2021/09/09 09:46:05;;;;;;;19.23;14.27;;;27.00;99.90;;;;;;5080470;28;20080;-78
2021/09/09 09:48:34;;;;;;;16.05;14.35;;;27.00;99.90;;;;;;5068510;28;20114;-78
2021/09/09 09:51:02;;;;;;;20.10;13.43;;;27.00;99.90;;;;;;5066762;28;20044;-79
2021/09/09 09:53:30;;;;;;;20.08;13.77;;;27.10;99.90;;;;;;5065997;28;20056;-79
2021/09/09 09:55:57;;;;;;;17.40;12.85;;;27.20;99.90;;;;;;5059809;28;20053;-79
2021/09/09 09:58:27;;;;;;;18.02;13.68;;;27.30;99.90;;;;;;5066721;28;20112;-78
2021/09/09 10:00:57;;;;;;;15.35;12.88;;;27.40;99.90;;;;;;5069359;28;20120;-79
2021/09/09 10:03:25;;;;;;;19.45;14.35;;;27.50;99.90;;;;;;5068389;28;20048;-79
2021/09/09 10:05:56;;;;;;;17.88;13.35;;;27.50;99.90;;;;;;5074125;28;20502;-79
2021/09/09 10:08:23;;;;;;;17.45;14.18;;;27.50;99.90;;;;;;5081420;28;20040;-78
2021/09/09 10:10:50;;;;;;;15.25;13.65;;;27.50;99.90;;;;;;5079497;28;20140;-79
2021/09/09 10:13:19;;;;;;;19.58;12.43;;;27.50;99.90;;;;;;5073831;28;20076;-77
2021/09/09 10:15:50;;;;;;;11.18;9.98;;;27.60;99.90;;;;;;5063210;28;20048;-78
2021/09/09 10:18:18;;;;;;;13.30;9.63;;;27.80;99.90;;;;;;5050552;28;20056;-78
2021/09/09 10:20:45;;;;;;;11.20;10.10;;;27.90;99.90;;;;;;5055817;28;20077;-78
2021/09/09 10:23:14;;;;;;;15.30;11.00;;;27.90;99.90;;;;;;5061924;28;20124;-78
2021/09/09 10:25:43;;;;;;;13.23;10.68;;;28.00;99.90;;;;;;5059372;28;20056;-79
2021/09/09 10:28:42;;;;;;;14.18;10.27;;;28.10;99.90;;;;;;5068340;28;20045;-78
2021/09/09 10:31:14;;;;;;;14.23;10.95;;;28.20;99.90;;;;;;5062244;28;20128;-78
2021/09/09 10:33:46;;;;;;;14.88;10.82;;;28.20;99.90;;;;;;5062407;28;20048;-78
2021/09/09 10:36:45;;;;;;;13.13;10.35;;;28.30;99.90;;;;;;5060544;28;20090;-78
2021/09/09 10:39:13;;;;;;;13.80;9.65;;;28.20;99.90;;;;;;5061468;28;20132;-77
2021/09/09 10:41:41;;;;;;;16.15;10.43;;;28.30;99.90;;;;;;5059278;28;20052;-78
2021/09/09 10:44:09;;;;;;;12.80;11.18;;;28.40;99.90;;;;;;5060432;28;20102;-79
2021/09/09 10:46:39;;;;;;;14.82;10.18;;;28.30;99.90;;;;;;5059363;28;20057;-78
2021/09/09 10:49:12;;;;;;;18.85;10.88;;;28.30;99.90;;;;;;5060582;28;20123;-79
2021/09/09 10:51:42;;;;;;;16.10;10.80;;;28.30;99.90;;;;;;5073031;23;20110;-77
2021/09/09 10:54:19;;;;;;;18.30;10.52;;;28.30;99.90;;;;;;5049180;28;20056;-77
2021/09/09 10:56:47;;;;;;;20.95;11.07;;;28.30;99.90;;;;;;5051834;28;20586;-77
2021/09/09 10:59:23;;;;;;;18.75;11.05;;;28.40;99.90;;;;;;5051479;28;20073;-77
2021/09/09 11:01:54;;;;;;;17.95;10.75;;;28.50;99.90;;;;;;5051151;28;20703;-77
2021/09/09 11:04:33;;;;;;;17.42;9.90;;;28.60;99.90;;;;;;5051520;28;20091;-77
2021/09/09 11:07:02;;;;;;;17.23;11.68;;;28.50;99.90;;;;;;5056948;28;20103;-78
2021/09/09 11:09:33;;;;;;;15.77;11.50;;;28.50;99.90;;;;;;5063143;28;20069;-78
2021/09/09 11:12:07;;;;;;;12.05;10.10;;;28.60;99.90;;;;;;5060110;28;20052;-78
2021/09/09 11:14:34;;;;;;;20.05;11.07;;;28.80;99.90;;;;;;5060421;28;20114;-77
2021/09/09 11:17:16;;;;;;;20.77;11.32;;;28.90;99.90;;;;;;5061857;28;20136;-79
2021/09/09 11:19:45;;;;;;;14.97;10.40;;;29.00;99.90;;;;;;5057199;28;20045;-76
2021/09/09 11:22:12;;;;;;;18.58;10.90;;;29.10;99.90;;;;;;5058434;28;20286;-77
2021/09/09 11:25:03;;;;;;;15.73;10.48;;;29.20;99.90;;;;;;5062944;28;20105;-78
2021/09/09 11:27:33;;;;;;;16.92;11.30;;;29.40;99.90;;;;;;5064662;28;20076;-78
2021/09/09 11:30:02;;;;;;;19.10;11.80;;;29.40;99.90;;;;;;5054258;28;20049;-78
2021/09/09 11:32:31;;;;;;;14.60;11.40;;;29.40;99.90;;;;;;5051776;28;20048;-77
2021/09/09 11:35:09;;;;;;;19.15;10.98;;;29.30;99.90;;;;;;5051974;28;20048;-77
2021/09/09 11:37:46;;;;;;;17.05;10.60;;;29.10;99.90;;;;;;5051689;28;20049;-78
2021/09/09 11:40:15;;;;;;;12.68;10.70;;;29.00;99.90;;;;;;5051693;28;20104;-78
2021/09/09 11:42:42;;;;;;;19.40;11.25;;;28.90;99.90;;;;;;5052465;28;20124;-78
2021/09/09 11:45:10;;;;;;;18.17;10.90;;;28.90;99.90;;;;;;5052687;28;20562;-78
2021/09/09 11:47:40;;;;;;;22.77;11.63;;;28.90;99.90;;;;;;5052330;28;20128;-79
2021/09/09 11:50:09;;;;;;;17.55;10.70;;;28.90;99.90;;;;;;5051737;28;20049;-78
2021/09/09 11:52:36;;;;;;;12.05;9.98;;;29.00;99.90;;;;;;5040207;28;20105;-78
2021/09/09 11:55:11;;;;;;;13.40;10.23;;;29.00;99.90;;;;;;5042732;28;20053;-78
2021/09/09 11:57:43;;;;;;;18.40;10.60;;;29.20;99.90;;;;;;5053761;28;20072;-78
2021/09/09 12:00:14;;;;;;;13.75;11.02;;;29.20;99.90;;;;;;5052815;28;20045;-78
2021/09/09 12:02:45;;;;;;;13.98;9.93;;;29.20;99.90;;;;;;5053217;28;20056;-78
2021/09/09 12:05:17;;;;;;;12.07;10.45;;;29.20;99.90;;;;;;5037921;28;20045;-78
2021/09/09 12:07:44;;;;;;;13.63;10.50;;;29.30;99.90;;;;;;5051104;28;20438;-78
2021/09/09 12:10:14;;;;;;;14.18;10.82;;;29.40;99.90;;;;;;5050614;28;20135;-78
2021/09/09 12:12:41;;;;;;;13.88;10.50;;;29.50;99.90;;;;;;5057376;28;20045;-79
2021/09/09 12:15:10;;;;;;;17.85;10.15;;;29.70;99.90;;;;;;5063093;28;20140;-80
2021/09/09 12:17:38;;;;;;;20.60;11.25;;;29.70;99.90;;;;;;5060434;28;20135;-80
2021/09/09 12:20:08;;;;;;;15.00;10.05;;;29.70;99.90;;;;;;5062703;28;20137;-79
2021/09/09 12:22:47;;;;;;;18.50;10.88;;;29.60;99.90;;;;;;5059984;28;20469;-79
2021/09/09 12:25:33;;;;;;;18.00;11.70;;;29.70;99.90;;;;;;5059221;28;20235;-79
2021/09/09 12:28:08;;;;;;;17.33;10.98;;;29.70;99.90;;;;;;5063697;28;20103;-78
2021/09/09 12:30:37;;;;;;;16.83;11.32;;;29.80;99.90;;;;;;5057297;28;20140;-79
2021/09/09 12:33:15;;;;;;;18.48;9.85;;;29.80;99.90;;;;;;5054924;28;20468;-79
2021/09/09 12:36:00;;;;;;;20.50;10.00;;;29.70;99.90;;;;;;5056361;28;20060;-79